CheckWX is a tool to help pilots better visualize weather data.  It is not intended as a substitute for an official pre-flight weather briefing.

21:41:03 UTC

KATY METAR
Watertown Regional Airport
Watertown, South Dakota, USA
Current

48 mins ago

KATY 232053Z AUTO 34011KT 6SM HZ BKN011 M05/M08 A2979 RMK AO2 SLP114 T10501078 58015
Observed
Feb-23 @ 20:53 UTC
Wind
  • 340° at 11 KTS
Visibility
6 SM
Flight Rules
MVFR
Conditions
Haze
Cloud Levels
  • Broken at 1,100' AGL
Temperature
-5°C / 23°F
Dewpoint
-8°C / 18°F
Humidity
80%
Altimeter
29.79" Hg
Pressure
1011.4 hPa
Previous

2 hours ago

KATY 231953Z AUTO 33011KT 6SM HZ OVC011 M04/M08 A2979 RMK AO2 SLP115 T10441078
Observed
Feb-23 @ 19:53 UTC
Wind
  • 330° at 11 KTS
Visibility
6 SM
Flight Rules
MVFR
Conditions
Haze
Cloud Levels
  • Overcast at 1,100' AGL
Temperature
-4°C / 25°F
Dewpoint
-8°C / 18°F
Humidity
74%
Altimeter
29.79" Hg
Pressure
1011.5 hPa
Previous

3 hours ago

KATY 231853Z AUTO 32008KT 5SM BR BKN010 BKN014 OVC039 M04/M07 A2983 RMK AO2 CIG 008V013 SLP129 T10441067
Observed
Feb-23 @ 18:53 UTC
Wind
  • 320° at 8 KTS
Visibility
5 SM
Flight Rules
MVFR
Conditions
Mist
Cloud Levels
  • Broken at 1,000' AGL
  • Broken at 1,400' AGL
  • Overcast at 3,900' AGL
Temperature
-4°C / 25°F
Dewpoint
-7°C / 19°F
Humidity
80%
Altimeter
29.83" Hg
Pressure
1012.9 hPa